Time;durP1;ratioP1;P1;durP2;ratioP2;P2;SDS_P1;SDS_P2;PMS_P1;PMS_P2;Temp;Humidity;BMP_temperature;BMP_pressure;BME280_temperature;BME280_humidity;BME280_pressure;Samples;Min_cycle;Max_cycle;Signal;HPM_P1;HPM_P2
2022/07/06 00:01:41;;;;;;;2.92;1.00;;;18.10;68.70;;;;;;5037421;28;20502;-86
2022/07/06 00:04:07;;;;;;;1.63;1.30;;;18.10;67.30;;;;;;5053951;28;20123;-85
2022/07/06 00:06:33;;;;;;;0.77;0.77;;;18.00;67.80;;;;;;5037156;28;20072;-85
2022/07/06 00:08:59;;;;;;;2.08;1.00;;;18.00;67.50;;;;;;5054142;28;20033;-85
2022/07/06 00:11:25;;;;;;;1.25;1.00;;;18.00;67.30;;;;;;5034263;28;20064;-86
2022/07/06 00:13:51;;;;;;;2.40;1.10;;;17.90;67.90;;;;;;5050824;28;20044;-85
2022/07/06 00:16:18;;;;;;;2.40;0.90;;;17.90;68.50;;;;;;5050216;28;20041;-86
2022/07/06 00:18:44;;;;;;;2.88;1.00;;;17.90;68.70;;;;;;5037179;28;20028;-87
2022/07/06 00:21:10;;;;;;;2.08;0.95;;;17.90;68.00;;;;;;5036939;28;20410;-85
2022/07/06 00:23:36;;;;;;;2.88;0.98;;;17.80;68.20;;;;;;5037230;28;20033;-85
2022/07/06 00:26:02;;;;;;;4.00;1.00;;;17.80;68.20;;;;;;5042537;28;20534;-86
2022/07/06 00:28:28;;;;;;;1.10;1.00;;;17.70;68.80;;;;;;5033445;28;20029;-85
2022/07/06 00:30:53;;;;;;;1.17;0.82;;;17.70;68.20;;;;;;5036844;28;20063;-85
2022/07/06 00:33:20;;;;;;;0.80;0.80;;;17.60;68.10;;;;;;5036781;28;20048;-85
2022/07/06 00:35:46;;;;;;;1.48;0.80;;;17.60;67.80;;;;;;5036490;28;20032;-86
2022/07/06 00:38:11;;;;;;;1.08;0.88;;;17.50;68.50;;;;;;5019869;28;20035;-85
2022/07/06 00:40:37;;;;;;;1.35;1.02;;;17.50;68.00;;;;;;5035455;28;20517;-86
2022/07/06 00:43:03;;;;;;;1.10;0.90;;;17.60;68.10;;;;;;5049727;28;20059;-86
2022/07/06 00:45:29;;;;;;;1.63;1.10;;;17.60;68.00;;;;;;5053005;28;20708;-85
2022/07/06 00:47:55;;;;;;;2.67;0.82;;;17.50;68.90;;;;;;5036611;28;20028;-85
2022/07/06 00:50:21;;;;;;;1.58;1.10;;;17.50;69.00;;;;;;5035865;28;20033;-85
2022/07/06 00:52:50;;;;;;;1.17;1.05;;;17.50;69.50;;;;;;5024372;28;20047;-85
2022/07/06 00:55:18;;;;;;;3.15;0.95;;;17.60;70.00;;;;;;5048384;28;20044;-85
2022/07/06 00:57:44;;;;;;;1.25;0.90;;;17.50;69.30;;;;;;5049148;28;20063;-87
2022/07/06 01:00:12;;;;;;;1.23;1.13;;;17.60;68.50;;;;;;5035206;28;20036;-85
2022/07/06 01:02:38;;;;;;;1.88;0.80;;;17.60;68.60;;;;;;5017843;28;20111;-86
2022/07/06 01:05:06;;;;;;;1.00;0.98;;;17.60;68.30;;;;;;5044769;28;20491;-85
2022/07/06 01:07:33;;;;;;;1.52;1.27;;;17.60;68.70;;;;;;5039012;28;20020;-86
2022/07/06 01:09:59;;;;;;;1.10;1.00;;;17.60;68.00;;;;;;5059462;28;20029;-86
2022/07/06 01:12:25;;;;;;;1.73;1.20;;;17.60;68.30;;;;;;5036659;28;20039;-86
2022/07/06 01:14:51;;;;;;;2.20;0.90;;;17.60;68.40;;;;;;5051756;28;20039;-86
2022/07/06 01:17:21;;;;;;;1.60;1.10;;;17.50;68.70;;;;;;5022262;28;20607;-85
2022/07/06 01:19:47;;;;;;;1.52;1.35;;;17.50;68.60;;;;;;5020173;28;20453;-85
2022/07/06 01:22:13;;;;;;;1.42;1.00;;;17.50;69.10;;;;;;5035729;28;20036;-85
2022/07/06 01:24:42;;;;;;;1.30;1.13;;;17.50;69.20;;;;;;5030677;28;20471;-86
2022/07/06 01:27:08;;;;;;;0.95;0.95;;;17.40;69.50;;;;;;5049333;28;20029;-85
2022/07/06 01:29:34;;;;;;;1.65;1.02;;;17.50;70.20;;;;;;5032677;28;20039;-86
2022/07/06 01:32:00;;;;;;;1.50;0.93;;;17.40;70.50;;;;;;5035749;28;20537;-85
2022/07/06 01:34:26;;;;;;;1.75;0.90;;;17.40;70.50;;;;;;5036432;28;20035;-86
2022/07/06 01:36:52;;;;;;;1.73;0.80;;;17.40;70.70;;;;;;5036027;28;20483;-85
2022/07/06 01:39:18;;;;;;;1.05;0.90;;;17.40;70.90;;;;;;5052998;28;20425;-85
2022/07/06 01:41:44;;;;;;;1.05;0.85;;;17.30;71.30;;;;;;5066168;28;20125;-85
2022/07/06 01:44:10;;;;;;;1.05;0.80;;;17.30;71.70;;;;;;5036439;28;20033;-85
2022/07/06 01:46:37;;;;;;;1.10;0.90;;;17.30;71.90;;;;;;5036410;28;20078;-85
2022/07/06 01:49:04;;;;;;;0.80;0.80;;;17.30;72.20;;;;;;5035657;28;20108;-84
2022/07/06 01:51:30;;;;;;;0.88;0.88;;;17.30;72.20;;;;;;5038733;28;20154;-85
2022/07/06 01:53:58;;;;;;;0.90;0.90;;;17.30;72.50;;;;;;5036800;28;20032;-87
2022/07/06 01:56:25;;;;;;;5.15;1.85;;;17.30;73.00;;;;;;5056991;28;20052;-86
2022/07/06 01:58:57;;;;;;;2.08;1.20;;;17.20;81.00;;;;;;5055756;28;20391;-86
2022/07/06 02:01:23;;;;;;;2.67;1.55;;;17.00;83.60;;;;;;5035911;28;20041;-87
2022/07/06 02:03:49;;;;;;;3.22;2.35;;;16.60;87.70;;;;;;5019538;28;20033;-85
2022/07/06 02:06:15;;;;;;;1.52;1.42;;;16.30;89.20;;;;;;5035863;28;20037;-86
2022/07/06 02:08:42;;;;;;;2.60;1.60;;;16.10;90.50;;;;;;5032494;28;20033;-86
2022/07/06 02:11:10;;;;;;;1.80;1.70;;;15.80;91.00;;;;;;5040276;28;20032;-85
2022/07/06 02:13:38;;;;;;;2.22;1.60;;;15.60;92.20;;;;;;5039658;28;20419;-85
2022/07/06 02:16:07;;;;;;;2.22;1.70;;;15.40;93.20;;;;;;5056563;28;20047;-85
2022/07/06 02:18:33;;;;;;;4.32;1.60;;;15.20;94.10;;;;;;5019538;28;20033;-85
2022/07/06 02:20:59;;;;;;;2.67;1.90;;;15.10;95.50;;;;;;5027350;28;20036;-86
2022/07/06 02:23:26;;;;;;;1.70;1.52;;;14.90;96.90;;;;;;5032398;28;20036;-85
2022/07/06 02:25:53;;;;;;;2.67;2.00;;;14.90;98.50;;;;;;5050229;28;20501;-86
2022/07/06 02:28:20;;;;;;;3.60;1.70;;;14.80;99.30;;;;;;5019670;28;20126;-86
2022/07/06 02:30:46;;;;;;;1.83;1.73;;;14.70;99.90;;;;;;5056162;28;20465;-85
2022/07/06 02:33:12;;;;;;;1.90;1.48;;;14.70;99.90;;;;;;5039231;28;20139;-85
2022/07/06 02:35:41;;;;;;;1.75;1.65;;;14.60;99.90;;;;;;5039947;28;20031;-85
2022/07/06 02:38:11;;;;;;;4.72;1.98;;;14.50;99.90;;;;;;5039544;28;20032;-86
2022/07/06 02:40:38;;;;;;;2.45;2.15;;;14.50;99.90;;;;;;5035533;28;20033;-86
2022/07/06 02:43:05;;;;;;;2.08;1.88;;;14.40;99.90;;;;;;5052392;28;20029;-84
2022/07/06 02:45:31;;;;;;;4.22;2.00;;;14.40;99.90;;;;;;5055930;28;20116;-85
2022/07/06 02:47:57;;;;;;;3.25;1.75;;;14.30;99.90;;;;;;5055665;28;20360;-85
2022/07/06 02:50:25;;;;;;;4.97;2.03;;;14.30;99.90;;;;;;5055035;28;20032;-84
2022/07/06 02:52:52;;;;;;;2.35;2.15;;;14.30;99.90;;;;;;5055664;28;20082;-85
2022/07/06 02:55:18;;;;;;;2.08;1.88;;;14.30;99.90;;;;;;5038657;28;20115;-85
2022/07/06 02:57:44;;;;;;;1.90;1.80;;;14.20;99.90;;;;;;5035881;28;20116;-85
2022/07/06 03:00:12;;;;;;;5.25;2.25;;;14.20;99.90;;;;;;5005556;28;20083;-85
2022/07/06 03:02:39;;;;;;;2.92;2.20;;;14.10;99.90;;;;;;5054884;28;20033;-86
2022/07/06 03:05:06;;;;;;;2.00;1.80;;;14.10;99.90;;;;;;5035714;28;20094;-85
2022/07/06 03:07:32;;;;;;;2.67;2.28;;;14.00;99.90;;;;;;5022149;28;20067;-88
2022/07/06 03:09:58;;;;;;;3.17;2.03;;;14.00;99.90;;;;;;5021432;28;20032;-85
2022/07/06 03:12:25;;;;;;;2.13;1.85;;;14.00;99.90;;;;;;5054774;28;20131;-85
2022/07/06 03:14:51;;;;;;;3.42;1.83;;;14.00;99.90;;;;;;5038517;28;20127;-85
2022/07/06 03:17:17;;;;;;;1.67;1.58;;;14.00;99.90;;;;;;5022081;28;20032;-85
2022/07/06 03:19:43;;;;;;;2.40;2.20;;;13.90;99.90;;;;;;5037823;28;20037;-85
2022/07/06 03:22:09;;;;;;;2.28;2.08;;;13.90;99.90;;;;;;5037630;28;20047;-84
2022/07/06 03:24:35;;;;;;;2.63;2.00;;;13.90;99.90;;;;;;5019854;28;20032;-85
2022/07/06 03:27:00;;;;;;;2.30;2.05;;;13.90;99.90;;;;;;5018337;28;20033;-87
2022/07/06 03:29:27;;;;;;;2.05;1.95;;;13.90;99.90;;;;;;5026492;28;20028;-85
2022/07/06 03:31:53;;;;;;;3.08;1.73;;;13.90;99.90;;;;;;5038017;28;20040;-85
2022/07/06 03:34:19;;;;;;;2.20;2.00;;;13.90;99.90;;;;;;5038584;28;20033;-85
2022/07/06 03:36:45;;;;;;;2.38;2.15;;;13.90;99.90;;;;;;5037796;28;20043;-85
2022/07/06 03:39:11;;;;;;;1.90;1.80;;;13.90;99.90;;;;;;5019749;28;20029;-85
2022/07/06 03:41:38;;;;;;;2.38;2.17;;;13.90;99.90;;;;;;5042213;28;20037;-86
2022/07/06 03:44:05;;;;;;;2.30;2.10;;;13.90;99.90;;;;;;5034762;28;20072;-87
2022/07/06 03:46:31;;;;;;;4.13;2.22;;;13.90;99.90;;;;;;5037694;28;20063;-84
2022/07/06 03:48:57;;;;;;;2.05;1.95;;;13.90;99.90;;;;;;5037287;28;20036;-85
2022/07/06 03:51:23;;;;;;;3.47;2.10;;;13.90;99.90;;;;;;5037722;28;20657;-87
2022/07/06 03:53:50;;;;;;;2.67;2.17;;;13.90;99.90;;;;;;5037745;28;20040;-86
2022/07/06 03:56:29;;;;;;;1.85;1.75;;;13.90;99.90;;;;;;5037266;28;20424;-85
2022/07/06 03:59:02;;;;;;;2.75;1.83;;;13.90;99.90;;;;;;5024134;28;20032;-84
2022/07/06 04:01:31;;;;;;;2.33;2.13;;;14.00;99.90;;;;;;5022332;28;20051;-84
2022/07/06 04:03:58;;;;;;;2.05;1.92;;;14.00;99.90;;;;;;5021033;28;20115;-85
2022/07/06 04:06:25;;;;;;;2.40;2.20;;;14.00;99.90;;;;;;5053767;28;20033;-85
2022/07/06 04:08:52;;;;;;;2.13;1.92;;;14.00;99.90;;;;;;5037456;28;20147;-84
2022/07/06 04:11:19;;;;;;;4.45;2.17;;;14.10;99.90;;;;;;5053615;28;20031;-85
2022/07/06 04:13:45;;;;;;;2.95;2.22;;;14.10;99.90;;;;;;5037048;28;20029;-85
2022/07/06 04:16:11;;;;;;;3.75;2.15;;;14.10;99.90;;;;;;5033379;28;20144;-85
2022/07/06 04:18:37;;;;;;;2.30;2.08;;;14.10;99.90;;;;;;5016861;28;20816;-86
2022/07/06 04:21:10;;;;;;;2.47;2.08;;;14.10;99.90;;;;;;5036558;28;20055;-85
2022/07/06 04:23:38;;;;;;;3.20;1.95;;;14.10;99.90;;;;;;5013178;28;20752;-84
2022/07/06 04:26:06;;;;;;;1.83;1.73;;;14.10;99.90;;;;;;5011534;28;20034;-85
2022/07/06 04:28:34;;;;;;;3.05;2.30;;;14.10;99.90;;;;;;5018958;28;20029;-84
2022/07/06 04:31:00;;;;;;;2.15;1.95;;;14.10;99.90;;;;;;5035607;28;20035;-83
2022/07/06 04:33:26;;;;;;;3.55;1.98;;;14.10;99.90;;;;;;5035711;28;20035;-85
2022/07/06 04:35:52;;;;;;;3.80;1.80;;;14.10;99.90;;;;;;5035418;28;20029;-84
2022/07/06 04:38:21;;;;;;;2.38;2.00;;;14.20;99.90;;;;;;5014292;28;20033;-85
2022/07/06 04:40:48;;;;;;;2.47;1.88;;;14.20;99.90;;;;;;5049587;28;20480;-84
2022/07/06 04:43:17;;;;;;;2.20;2.10;;;14.30;99.90;;;;;;4999063;28;20074;-84
2022/07/06 04:45:43;;;;;;;2.78;2.10;;;14.30;99.90;;;;;;5006164;28;20048;-87
2022/07/06 04:48:09;;;;;;;2.35;1.83;;;14.30;99.90;;;;;;5035138;28;20033;-85
2022/07/06 04:50:36;;;;;;;3.60;2.22;;;14.40;99.90;;;;;;5003862;28;20601;-84
2022/07/06 04:53:03;;;;;;;3.00;1.88;;;14.50;99.90;;;;;;5021142;28;20395;-84
2022/07/06 04:55:31;;;;;;;1.77;1.58;;;14.60;99.90;;;;;;5048516;28;20036;-84
2022/07/06 04:57:57;;;;;;;3.92;1.85;;;14.60;99.90;;;;;;5020462;28;20498;-85
2022/07/06 05:00:24;;;;;;;1.80;1.70;;;14.70;99.90;;;;;;5040998;28;20028;-85
2022/07/06 05:02:50;;;;;;;2.67;1.75;;;14.80;99.90;;;;;;5016809;28;20029;-85
2022/07/06 05:05:18;;;;;;;1.83;1.73;;;14.80;99.90;;;;;;5038953;28;20028;-85
2022/07/06 05:07:45;;;;;;;2.08;1.80;;;14.90;99.90;;;;;;5033418;28;20030;-84
2022/07/06 05:10:11;;;;;;;1.67;1.58;;;15.00;99.90;;;;;;5060714;28;20036;-85
2022/07/06 05:12:40;;;;;;;1.95;1.50;;;15.10;99.90;;;;;;5020057;28;20036;-85
2022/07/06 05:15:07;;;;;;;1.90;1.80;;;15.20;99.90;;;;;;5047057;28;20036;-84
2022/07/06 05:17:34;;;;;;;1.80;1.70;;;15.30;99.90;;;;;;5018040;28;20021;-84
2022/07/06 05:20:01;;;;;;;1.95;1.83;;;15.40;99.90;;;;;;5036290;28;20031;-84
2022/07/06 05:22:30;;;;;;;2.67;1.50;;;15.40;99.90;;;;;;5033370;28;20372;-85
2022/07/06 05:24:56;;;;;;;2.00;1.80;;;15.50;99.90;;;;;;5016383;28;20040;-85
2022/07/06 05:27:22;;;;;;;1.90;1.50;;;15.60;99.90;;;;;;5045699;28;20415;-86
2022/07/06 05:29:49;;;;;;;2.00;1.55;;;15.70;99.90;;;;;;5035135;28;20691;-86
2022/07/06 05:32:15;;;;;;;1.55;1.45;;;15.90;99.90;;;;;;5034687;28;20166;-84
2022/07/06 05:34:41;;;;;;;1.45;1.23;;;16.10;99.90;;;;;;5000267;28;20060;-85
2022/07/06 05:37:07;;;;;;;4.03;1.50;;;16.40;99.90;;;;;;5040869;28;20078;-85
2022/07/06 05:39:34;;;;;;;1.55;1.45;;;17.00;99.90;;;;;;5059885;28;20498;-85
2022/07/06 05:42:00;;;;;;;1.58;1.48;;;17.50;99.90;;;;;;5051782;28;20117;-84
2022/07/06 05:44:26;;;;;;;1.25;1.23;;;18.10;99.90;;;;;;5033907;28;20030;-84
2022/07/06 05:50:11;;;;;;;1.70;1.60;;;18.70;99.90;;;;;;5012983;28;20028;-84
2022/07/06 05:52:22;;;;;;;1.25;1.20;;;19.90;99.90;;;;;;5036806;28;20448;-87
2022/07/06 05:54:48;;;;;;;1.08;1.00;;;20.50;99.90;;;;;;5036391;28;20171;-87
2022/07/06 05:57:14;;;;;;;1.25;1.15;;;21.10;99.90;;;;;;5053614;28;20028;-85
2022/07/06 05:59:39;;;;;;;3.40;1.33;;;21.60;97.00;;;;;;5022265;28;20036;-86
2022/07/06 06:02:06;;;;;;;0.90;0.90;;;21.90;92.80;;;;;;5039915;28;20066;-86
2022/07/06 06:04:32;;;;;;;3.78;1.15;;;21.90;91.30;;;;;;5023546;28;20541;-86
2022/07/06 06:06:58;;;;;;;1.38;1.27;;;21.70;91.00;;;;;;5023113;28;20033;-85
2022/07/06 06:09:24;;;;;;;1.02;1.02;;;21.30;90.70;;;;;;5006677;28;20102;-86
2022/07/06 06:11:51;;;;;;;3.28;1.20;;;21.00;92.80;;;;;;5039065;28;20402;-87
2022/07/06 06:14:17;;;;;;;3.08;0.93;;;20.90;91.90;;;;;;5039039;28;20041;-87
2022/07/06 06:16:43;;;;;;;1.50;1.20;;;20.80;91.30;;;;;;5031930;28;20040;-87
2022/07/06 06:19:08;;;;;;;2.35;1.20;;;20.80;91.90;;;;;;5038751;28;20040;-86
2022/07/06 06:21:34;;;;;;;1.75;1.15;;;20.90;91.50;;;;;;5027577;28;20035;-88
2022/07/06 06:24:00;;;;;;;1.83;1.17;;;21.00;91.10;;;;;;5035715;28;20035;-86
2022/07/06 06:26:26;;;;;;;1.30;1.20;;;21.10;94.20;;;;;;5027338;28;20037;-87
2022/07/06 06:28:51;;;;;;;2.03;1.02;;;21.10;92.70;;;;;;5021893;28;20093;-86
2022/07/06 06:31:17;;;;;;;1.30;1.20;;;21.30;91.00;;;;;;5039234;28;20594;-87
2022/07/06 06:33:43;;;;;;;1.63;1.10;;;21.50;90.10;;;;;;5043848;28;20033;-88
2022/07/06 06:36:09;;;;;;;1.10;1.00;;;21.70;88.40;;;;;;5008560;28;20035;-86
2022/07/06 06:38:34;;;;;;;1.23;1.13;;;21.80;88.90;;;;;;5038405;28;20483;-86
2022/07/06 06:41:01;;;;;;;3.63;1.30;;;22.10;88.00;;;;;;5029739;28;20033;-86
2022/07/06 06:43:27;;;;;;;1.08;0.93;;;22.50;85.40;;;;;;5043860;28;20680;-88
2022/07/06 06:46:04;;;;;;;0.95;0.90;;;22.70;83.90;;;;;;5004675;28;20033;-87
2022/07/06 06:48:31;;;;;;;2.97;1.08;;;23.10;77.50;;;;;;5031972;28;20055;-86
2022/07/06 06:50:57;;;;;;;2.40;0.80;;;23.40;73.10;;;;;;5049996;28;20040;-87
2022/07/06 06:53:23;;;;;;;0.77;0.63;;;23.70;71.60;;;;;;5055788;28;20036;-86
2022/07/06 06:55:49;;;;;;;2.22;0.90;;;24.10;71.10;;;;;;5038922;28;20040;-87
2022/07/06 06:58:14;;;;;;;2.05;0.82;;;24.50;68.90;;;;;;5034875;28;20029;-86
2022/07/06 07:00:40;;;;;;;2.42;1.38;;;24.90;63.80;;;;;;5027767;28;20029;-87
2022/07/06 07:03:06;;;;;;;3.13;1.05;;;25.20;61.90;;;;;;5007727;28;20549;-86
2022/07/06 07:05:32;;;;;;;1.73;1.13;;;25.50;59.60;;;;;;5022550;28;20055;-86
2022/07/06 07:07:58;;;;;;;1.80;0.90;;;25.70;58.40;;;;;;5044150;28;20064;-87
2022/07/06 07:10:26;;;;;;;1.05;0.95;;;25.90;58.90;;;;;;5052393;28;20036;-85
2022/07/06 07:12:52;;;;;;;0.70;0.70;;;25.70;60.00;;;;;;5072626;28;20103;-87
2022/07/06 07:15:17;;;;;;;1.52;0.93;;;25.60;57.90;;;;;;5037912;28;20066;-87
2022/07/06 07:17:43;;;;;;;0.77;0.77;;;25.60;57.60;;;;;;5026513;28;20036;-87
2022/07/06 07:20:10;;;;;;;1.02;0.93;;;25.60;59.80;;;;;;5043509;28;20060;-89
2022/07/06 07:22:36;;;;;;;2.53;1.10;;;25.50;56.90;;;;;;5056430;28;20029;-85
2022/07/06 07:25:02;;;;;;;1.63;1.10;;;25.30;56.90;;;;;;5016010;28;20037;-86
2022/07/06 07:27:28;;;;;;;1.00;0.90;;;25.20;59.60;;;;;;5040310;28;20248;-89
2022/07/06 07:29:53;;;;;;;1.13;0.90;;;25.20;59.30;;;;;;5060315;28;20079;-87
2022/07/06 07:32:19;;;;;;;2.85;0.90;;;25.40;56.80;;;;;;5039753;28;20043;-89
2022/07/06 07:34:45;;;;;;;1.38;0.80;;;25.60;55.20;;;;;;5040117;28;20036;-86
2022/07/06 07:37:11;;;;;;;1.05;0.95;;;25.70;56.30;;;;;;5007395;28;20035;-86
2022/07/06 07:39:37;;;;;;;2.30;1.00;;;25.80;55.30;;;;;;5036595;28;20479;-84
2022/07/06 07:42:03;;;;;;;1.23;1.02;;;26.00;55.60;;;;;;5044413;28;20033;-84
2022/07/06 07:44:29;;;;;;;1.63;1.13;;;26.00;56.10;;;;;;5051659;28;20123;-84
2022/07/06 07:46:55;;;;;;;1.10;1.00;;;26.10;56.60;;;;;;5034833;28;20060;-84
2022/07/06 07:49:21;;;;;;;2.03;1.00;;;26.30;54.90;;;;;;5037365;28;20074;-82
2022/07/06 07:51:48;;;;;;;4.25;1.70;;;26.50;53.90;;;;;;5068441;28;20631;-83
2022/07/06 07:54:14;;;;;;;2.25;1.27;;;26.40;54.20;;;;;;5040396;28;20441;-85
2022/07/06 07:56:42;;;;;;;1.33;1.10;;;26.40;52.80;;;;;;5066889;28;20035;-86
2022/07/06 07:59:09;;;;;;;0.90;0.90;;;26.40;53.20;;;;;;5057963;28;20036;-83
2022/07/06 08:01:36;;;;;;;1.85;0.93;;;26.50;52.80;;;;;;5068786;28;20083;-87
2022/07/06 08:04:02;;;;;;;2.53;1.85;;;26.60;53.40;;;;;;5051729;28;20029;-85
2022/07/06 08:06:28;;;;;;;3.00;1.55;;;26.50;54.60;;;;;;5031325;28;20044;-85
2022/07/06 08:08:54;;;;;;;1.60;0.90;;;25.90;51.30;;;;;;5034359;28;20115;-83
2022/07/06 08:11:20;;;;;;;2.03;1.30;;;25.60;54.30;;;;;;5035795;28;20048;-85
2022/07/06 08:13:46;;;;;;;7.35;1.20;;;25.40;54.30;;;;;;5052592;28;20047;-84
2022/07/06 08:16:12;;;;;;;1.70;0.90;;;25.30;56.40;;;;;;5056088;28;20614;-85
2022/07/06 08:18:38;;;;;;;1.10;1.00;;;25.20;56.50;;;;;;5038522;28;20119;-84
2022/07/06 08:21:04;;;;;;;1.92;1.17;;;25.30;54.90;;;;;;5022856;28;20052;-84
2022/07/06 08:23:30;;;;;;;2.58;1.13;;;25.30;55.20;;;;;;5034461;28;20041;-85
2022/07/06 08:25:56;;;;;;;1.35;1.00;;;25.30;54.00;;;;;;5016922;28;20033;-85
2022/07/06 08:28:21;;;;;;;1.27;1.08;;;25.20;55.90;;;;;;5037308;28;20457;-85
2022/07/06 08:30:47;;;;;;;3.65;1.00;;;25.20;55.50;;;;;;5053288;28;20040;-86
2022/07/06 08:33:14;;;;;;;1.00;0.90;;;25.00;55.30;;;;;;5053638;28;20036;-86
2022/07/06 08:35:40;;;;;;;3.67;1.20;;;24.80;57.00;;;;;;5050227;28;20035;-86
2022/07/06 08:38:06;;;;;;;1.33;1.17;;;24.60;59.50;;;;;;5020493;28;20033;-86
2022/07/06 08:40:38;;;;;;;5.20;1.15;;;24.50;59.50;;;;;;5004373;28;20039;-85
2022/07/06 08:43:03;;;;;;;1.02;1.00;;;24.40;58.20;;;;;;5055020;28;20029;-85
2022/07/06 08:45:30;;;;;;;1.30;1.05;;;24.30;57.40;;;;;;5037038;28;20487;-87
2022/07/06 08:48:03;;;;;;;2.63;1.27;;;24.20;57.70;;;;;;5025956;28;20025;-86
2022/07/06 08:50:28;;;;;;;1.55;1.15;;;24.30;59.80;;;;;;5053637;28;20036;-85
2022/07/06 08:52:54;;;;;;;1.00;0.90;;;24.10;54.20;;;;;;5020784;28;20035;-84
2022/07/06 08:55:21;;;;;;;2.25;1.17;;;23.90;55.30;;;;;;5036913;28;20399;-87
2022/07/06 08:57:47;;;;;;;1.63;1.25;;;23.90;57.90;;;;;;5053655;28;20024;-86
2022/07/06 09:00:13;;;;;;;1.50;1.20;;;23.90;56.70;;;;;;5035999;28;20036;-86
2022/07/06 09:02:40;;;;;;;1.75;1.10;;;23.80;56.90;;;;;;5033409;28;20029;-84
2022/07/06 09:05:08;;;;;;;1.30;0.90;;;23.50;58.20;;;;;;5034555;28;20052;-85
2022/07/06 09:07:34;;;;;;;1.38;1.23;;;23.40;60.00;;;;;;5036564;28;20024;-86
2022/07/06 09:10:01;;;;;;;1.40;0.98;;;23.30;63.00;;;;;;5019599;28;20036;-85
2022/07/06 09:12:27;;;;;;;0.90;0.90;;;23.30;61.80;;;;;;5048609;28;20033;-85
2022/07/06 09:14:57;;;;;;;0.80;0.80;;;23.40;59.60;;;;;;5021793;28;20036;-86
2022/07/06 09:17:27;;;;;;;0.75;0.75;;;23.40;62.50;;;;;;5051314;28;20052;-85
2022/07/06 09:19:55;;;;;;;1.23;0.90;;;23.50;61.40;;;;;;5052517;28;20032;-85
2022/07/06 09:22:32;;;;;;;1.65;1.00;;;23.60;60.40;;;;;;5038536;28;20036;-86
2022/07/06 09:25:04;;;;;;;1.13;0.90;;;23.80;60.50;;;;;;5036701;28;20035;-85
2022/07/06 09:27:30;;;;;;;2.17;1.05;;;23.80;57.70;;;;;;5067840;28;20044;-85
2022/07/06 09:30:01;;;;;;;2.67;1.15;;;23.90;57.10;;;;;;5052275;28;20036;-84
2022/07/06 09:32:27;;;;;;;1.65;1.15;;;23.90;57.30;;;;;;5036076;28;20029;-86
2022/07/06 09:34:54;;;;;;;3.00;1.15;;;24.00;58.20;;;;;;5036217;28;20074;-85
2022/07/06 09:37:23;;;;;;;1.10;1.00;;;24.20;60.00;;;;;;5036555;28;20037;-85
2022/07/06 09:39:49;;;;;;;2.83;1.17;;;24.20;58.80;;;;;;4999715;28;20029;-85
2022/07/06 09:42:15;;;;;;;1.88;1.10;;;24.30;60.80;;;;;;5034021;28;20040;-84
2022/07/06 09:44:41;;;;;;;1.40;1.25;;;24.40;54.90;;;;;;5052585;28;20060;-86
2022/07/06 09:47:12;;;;;;;1.27;0.75;;;24.40;58.60;;;;;;5044435;28;20033;-85
2022/07/06 09:49:39;;;;;;;1.00;0.85;;;24.30;59.70;;;;;;5052407;28;20052;-85
2022/07/06 09:52:07;;;;;;;0.75;0.75;;;24.20;59.10;;;;;;5036472;28;20077;-85
2022/07/06 09:54:38;;;;;;;1.25;0.90;;;24.00;58.60;;;;;;5052595;28;20486;-86
2022/07/06 09:57:05;;;;;;;0.95;0.85;;;23.80;59.50;;;;;;5036574;28;20072;-85
2022/07/06 09:59:32;;;;;;;1.80;1.05;;;23.70;60.90;;;;;;5019436;28;20504;-85
2022/07/06 10:02:04;;;;;;;2.55;1.80;;;23.50;60.30;;;;;;5051809;28;20029;-86
2022/07/06 10:04:30;;;;;;;1.35;0.88;;;23.50;61.30;;;;;;5035977;28;20036;-85
2022/07/06 10:06:57;;;;;;;1.40;1.15;;;23.50;59.00;;;;;;5036173;28;20029;-85
2022/07/06 10:09:26;;;;;;;1.52;1.10;;;23.40;57.60;;;;;;5035933;28;20052;-85
2022/07/06 10:12:00;;;;;;;1.35;0.90;;;23.30;62.20;;;;;;5068107;28;20558;-86
2022/07/06 10:14:31;;;;;;;3.40;1.10;;;23.20;61.70;;;;;;5020273;28;20036;-84
2022/07/06 10:16:58;;;;;;;1.27;1.00;;;23.20;59.10;;;;;;5055041;28;20075;-86
2022/07/06 10:19:25;;;;;;;1.45;0.90;;;23.10;59.40;;;;;;5036275;28;20039;-84
2022/07/06 10:21:52;;;;;;;0.88;0.88;;;23.30;61.10;;;;;;5035511;28;20038;-86
2022/07/06 10:24:20;;;;;;;1.25;1.08;;;23.40;59.60;;;;;;5036798;28;20029;-85
2022/07/06 10:26:47;;;;;;;2.58;1.35;;;23.40;57.40;;;;;;5032680;28;20055;-85
2022/07/06 10:29:13;;;;;;;1.25;1.02;;;23.40;61.70;;;;;;5031443;28;20040;-85
2022/07/06 10:31:43;;;;;;;1.10;1.00;;;23.40;58.40;;;;;;5059669;28;20040;-86
2022/07/06 10:34:12;;;;;;;1.27;1.17;;;23.30;59.90;;;;;;5052486;28;20387;-85
2022/07/06 10:36:40;;;;;;;1.05;0.85;;;23.40;59.40;;;;;;5039541;28;20037;-85
2022/07/06 10:41:50;;;;;;;0.93;0.93;;;23.60;57.90;;;;;;5055102;28;20127;-85
2022/07/06 10:44:18;;;;;;;1.10;1.10;;;23.70;57.40;;;;;;5017604;28;20551;-85
2022/07/06 10:46:54;;;;;;;1.00;1.00;;;23.70;58.30;;;;;;5063140;28;20112;-85
2022/07/06 10:49:21;;;;;;;0.90;0.90;;;23.60;57.00;;;;;;5023486;28;20133;-86
2022/07/06 10:51:47;;;;;;;1.95;0.95;;;23.60;57.80;;;;;;5049359;28;20039;-85
2022/07/06 10:54:14;;;;;;;1.10;1.00;;;23.60;58.70;;;;;;5052180;28;20044;-85
2022/07/06 10:56:44;;;;;;;0.85;0.85;;;23.50;59.90;;;;;;5031916;28;20057;-84
2022/07/06 10:59:16;;;;;;;1.25;1.00;;;23.40;59.60;;;;;;5051466;28;20062;-86
2022/07/06 11:02:14;;;;;;;1.15;1.10;;;23.30;60.60;;;;;;5049117;28;20025;-85
2022/07/06 11:04:42;;;;;;;1.13;1.00;;;23.10;62.20;;;;;;5061994;28;20035;-85
2022/07/06 11:07:10;;;;;;;1.48;1.38;;;23.00;61.40;;;;;;5032679;28;20040;-85
2022/07/06 11:09:37;;;;;;;1.67;1.23;;;23.00;62.80;;;;;;5031134;28;20128;-85
2022/07/06 11:12:18;;;;;;;1.30;1.20;;;23.10;63.30;;;;;;5035725;28;20040;-85
2022/07/06 11:14:44;;;;;;;1.80;1.20;;;23.10;58.90;;;;;;5038074;28;20041;-85
2022/07/06 11:17:11;;;;;;;1.45;1.10;;;23.20;57.60;;;;;;5035339;28;20750;-85
2022/07/06 11:19:37;;;;;;;2.40;1.10;;;23.30;58.80;;;;;;5035291;28;20115;-85
2022/07/06 11:22:08;;;;;;;1.98;1.10;;;23.50;58.60;;;;;;5052102;28;20131;-85
2022/07/06 11:24:38;;;;;;;4.72;1.40;;;23.60;56.30;;;;;;5019373;28;20032;-84
2022/07/06 11:27:06;;;;;;;2.40;1.02;;;23.60;56.20;;;;;;5034905;28;20119;-85
2022/07/06 11:29:38;;;;;;;8.00;1.30;;;23.70;58.90;;;;;;5034835;28;20069;-86
2022/07/06 11:32:09;;;;;;;1.88;0.95;;;23.70;59.20;;;;;;5020015;28;20029;-85
2022/07/06 11:34:38;;;;;;;0.98;0.85;;;23.80;56.60;;;;;;5035808;28;20036;-86
2022/07/06 11:37:09;;;;;;;2.25;1.00;;;23.60;58.30;;;;;;5050434;28;20047;-86
2022/07/06 11:39:39;;;;;;;1.05;0.90;;;23.50;58.40;;;;;;5050070;28;20043;-86
2022/07/06 11:42:06;;;;;;;1.50;1.08;;;23.60;57.80;;;;;;5043789;28;20479;-85
2022/07/06 11:44:33;;;;;;;1.45;1.20;;;23.60;58.00;;;;;;5014303;28;20782;-86
2022/07/06 11:47:02;;;;;;;0.70;0.70;;;23.80;58.00;;;;;;5029741;28;20052;-86
2022/07/06 11:49:28;;;;;;;2.15;0.90;;;23.70;55.40;;;;;;5033166;28;20048;-86
2022/07/06 11:51:54;;;;;;;1.42;0.80;;;23.80;56.10;;;;;;5037140;28;20115;-86
2022/07/06 11:54:21;;;;;;;0.90;0.65;;;23.90;56.10;;;;;;5046640;28;20436;-85
2022/07/06 11:56:55;;;;;;;0.98;0.70;;;23.90;55.50;;;;;;5024942;28;20495;-86
2022/07/06 11:59:24;;;;;;;1.03;0.77;;;23.70;55.40;;;;;;5037708;28;20036;-85
2022/07/06 12:01:59;;;;;;;1.20;0.80;;;23.70;57.60;;;;;;5044894;28;20037;-86
2022/07/06 12:04:25;;;;;;;0.90;0.75;;;23.80;57.30;;;;;;5067551;28;20452;-85
2022/07/06 12:06:51;;;;;;;0.75;0.70;;;24.00;55.90;;;;;;5017415;28;20453;-85
2022/07/06 12:09:20;;;;;;;1.00;0.70;;;24.10;55.40;;;;;;5010601;28;20049;-87
2022/07/06 12:11:46;;;;;;;3.08;0.68;;;24.30;51.40;;;;;;5008966;28;20033;-86
2022/07/06 12:14:13;;;;;;;0.60;0.60;;;24.40;50.50;;;;;;5030599;28;20125;-86
2022/07/06 12:16:39;;;;;;;1.77;0.60;;;24.50;51.30;;;;;;5047491;28;20029;-86
2022/07/06 12:19:07;;;;;;;1.60;0.80;;;24.40;53.10;;;;;;5021215;28;20603;-85
2022/07/06 12:21:34;;;;;;;1.67;0.80;;;24.30;52.20;;;;;;5049607;28;20059;-85
2022/07/06 12:24:00;;;;;;;2.08;0.77;;;24.30;53.10;;;;;;5063446;28;20040;-85
2022/07/06 12:26:29;;;;;;;0.98;0.70;;;24.40;55.90;;;;;;5037123;28;20128;-86
2022/07/06 12:29:12;;;;;;;0.90;0.90;;;24.50;54.00;;;;;;5033596;28;20040;-85
2022/07/06 12:31:39;;;;;;;0.88;0.77;;;24.60;51.20;;;;;;5028058;28;20037;-85
2022/07/06 12:34:11;;;;;;;2.70;0.70;;;24.70;53.10;;;;;;5033734;28;20029;-86
2022/07/06 12:36:58;;;;;;;0.77;0.70;;;24.90;52.40;;;;;;5046039;28;20040;-86
2022/07/06 12:39:26;;;;;;;0.70;0.60;;;25.20;49.70;;;;;;5053065;28;20125;-87
2022/07/06 12:41:53;;;;;;;0.63;0.63;;;25.30;51.10;;;;;;5037393;28;20036;-86
2022/07/06 12:44:23;;;;;;;0.57;0.57;;;25.30;51.80;;;;;;5053622;28;20051;-85
2022/07/06 12:46:51;;;;;;;1.02;0.60;;;25.50;51.10;;;;;;5035296;28;20037;-85
2022/07/06 12:49:19;;;;;;;0.60;0.60;;;25.60;50.20;;;;;;5062892;28;20577;-86
2022/07/06 12:52:02;;;;;;;0.57;0.57;;;25.90;50.40;;;;;;5026254;28;20060;-85
2022/07/06 12:54:31;;;;;;;0.63;0.63;;;26.20;48.90;;;;;;5062152;28;20455;-86